sensor_id;sensor_type;location;lat;lon;timestamp;P1;durP1;ratioP1;P2;durP2;ratioP2
20458;SDS011;10388;52.314;7.938;2022-11-20T00:01:47;19.97;;;11.60;;
20458;SDS011;10388;52.314;7.938;2022-11-20T00:04:18;19.90;;;11.80;;
20458;SDS011;10388;52.314;7.938;2022-11-20T00:06:48;19.67;;;11.87;;
20458;SDS011;10388;52.314;7.938;2022-11-20T00:09:19;17.20;;;11.73;;
20458;SDS011;10388;52.314;7.938;2022-11-20T00:11:50;17.57;;;11.30;;
20458;SDS011;10388;52.314;7.938;2022-11-20T00:14:21;17.60;;;11.30;;
20458;SDS011;10388;52.314;7.938;2022-11-20T00:16:51;19.20;;;11.90;;
20458;SDS011;10388;52.314;7.938;2022-11-20T00:19:22;18.17;;;11.23;;
20458;SDS011;10388;52.314;7.938;2022-11-20T00:21:52;19.83;;;12.20;;
20458;SDS011;10388;52.314;7.938;2022-11-20T00:24:25;22.00;;;12.07;;
20458;SDS011;10388;52.314;7.938;2022-11-20T00:26:55;20.57;;;12.03;;
20458;SDS011;10388;52.314;7.938;2022-11-20T00:29:26;21.80;;;12.23;;
20458;SDS011;10388;52.314;7.938;2022-11-20T00:31:56;21.13;;;12.27;;
20458;SDS011;10388;52.314;7.938;2022-11-20T00:34:27;19.43;;;12.33;;
20458;SDS011;10388;52.314;7.938;2022-11-20T00:36:57;18.30;;;12.83;;
20458;SDS011;10388;52.314;7.938;2022-11-20T00:39:28;18.50;;;11.43;;
20458;SDS011;10388;52.314;7.938;2022-11-20T00:41:58;18.70;;;11.77;;
20458;SDS011;10388;52.314;7.938;2022-11-20T00:44:29;16.60;;;10.77;;
20458;SDS011;10388;52.314;7.938;2022-11-20T00:46:59;17.30;;;11.20;;
20458;SDS011;10388;52.314;7.938;2022-11-20T00:49:30;18.93;;;11.90;;
20458;SDS011;10388;52.314;7.938;2022-11-20T00:52:00;17.50;;;11.47;;
20458;SDS011;10388;52.314;7.938;2022-11-20T00:54:31;23.37;;;11.83;;
20458;SDS011;10388;52.314;7.938;2022-11-20T00:57:01;18.87;;;11.67;;
20458;SDS011;10388;52.314;7.938;2022-11-20T00:59:32;22.03;;;12.33;;
20458;SDS011;10388;52.314;7.938;2022-11-20T01:12:50;22.40;;;12.73;;
20458;SDS011;10388;52.314;7.938;2022-11-20T01:15:41;19.83;;;12.67;;
20458;SDS011;10388;52.314;7.938;2022-11-20T01:18:14;21.50;;;12.40;;
20458;SDS011;10388;52.314;7.938;2022-11-20T01:20:49;26.73;;;14.90;;
20458;SDS011;10388;52.314;7.938;2022-11-20T01:23:20;31.70;;;16.37;;
20458;SDS011;10388;52.314;7.938;2022-11-20T01:25:54;26.13;;;14.77;;
20458;SDS011;10388;52.314;7.938;2022-11-20T01:28:25;27.87;;;14.97;;
20458;SDS011;10388;52.314;7.938;2022-11-20T01:30:59;23.13;;;14.40;;
20458;SDS011;10388;52.314;7.938;2022-11-20T01:33:41;22.00;;;12.23;;
20458;SDS011;10388;52.314;7.938;2022-11-20T01:36:13;19.20;;;11.87;;
20458;SDS011;10388;52.314;7.938;2022-11-20T01:38:45;22.33;;;12.50;;
20458;SDS011;10388;52.314;7.938;2022-11-20T01:41:16;22.13;;;12.10;;
20458;SDS011;10388;52.314;7.938;2022-11-20T01:44:22;19.13;;;11.67;;
20458;SDS011;10388;52.314;7.938;2022-11-20T01:47:24;15.97;;;11.17;;
20458;SDS011;10388;52.314;7.938;2022-11-20T01:50:04;17.77;;;11.70;;
20458;SDS011;10388;52.314;7.938;2022-11-20T01:52:45;16.50;;;11.40;;
20458;SDS011;10388;52.314;7.938;2022-11-20T01:55:34;18.50;;;11.90;;
20458;SDS011;10388;52.314;7.938;2022-11-20T01:58:09;19.17;;;12.10;;
20458;SDS011;10388;52.314;7.938;2022-11-20T02:00:44;22.83;;;12.57;;
20458;SDS011;10388;52.314;7.938;2022-11-20T02:07:28;18.90;;;11.30;;
20458;SDS011;10388;52.314;7.938;2022-11-20T02:10:01;19.57;;;12.03;;
20458;SDS011;10388;52.314;7.938;2022-11-20T02:12:32;18.57;;;11.77;;
20458;SDS011;10388;52.314;7.938;2022-11-20T02:15:22;19.90;;;12.53;;
20458;SDS011;10388;52.314;7.938;2022-11-20T02:17:52;19.00;;;12.37;;
20458;SDS011;10388;52.314;7.938;2022-11-20T02:20:24;17.27;;;11.37;;
20458;SDS011;10388;52.314;7.938;2022-11-20T03:09:49;19.40;;;11.07;;
20458;SDS011;10388;52.314;7.938;2022-11-20T03:15:52;18.03;;;11.07;;
20458;SDS011;10388;52.314;7.938;2022-11-20T03:18:37;18.23;;;10.90;;
20458;SDS011;10388;52.314;7.938;2022-11-20T03:24:19;16.63;;;11.23;;
20458;SDS011;10388;52.314;7.938;2022-11-20T03:27:53;19.43;;;11.30;;
20458;SDS011;10388;52.314;7.938;2022-11-20T03:36:22;18.47;;;11.27;;
20458;SDS011;10388;52.314;7.938;2022-11-20T03:38:56;20.53;;;12.53;;
20458;SDS011;10388;52.314;7.938;2022-11-20T03:48:50;19.03;;;11.50;;
20458;SDS011;10388;52.314;7.938;2022-11-20T03:51:23;17.93;;;10.90;;
20458;SDS011;10388;52.314;7.938;2022-11-20T03:54:40;18.27;;;11.43;;
20458;SDS011;10388;52.314;7.938;2022-11-20T03:57:17;18.30;;;11.83;;
20458;SDS011;10388;52.314;7.938;2022-11-20T04:03:16;16.30;;;10.97;;
20458;SDS011;10388;52.314;7.938;2022-11-20T04:06:22;17.57;;;11.43;;
20458;SDS011;10388;52.314;7.938;2022-11-20T04:09:20;15.77;;;10.00;;
20458;SDS011;10388;52.314;7.938;2022-11-20T04:12:04;17.07;;;10.90;;
20458;SDS011;10388;52.314;7.938;2022-11-20T04:14:49;20.53;;;11.73;;
20458;SDS011;10388;52.314;7.938;2022-11-20T04:17:51;19.20;;;11.77;;
20458;SDS011;10388;52.314;7.938;2022-11-20T04:20:29;19.73;;;11.30;;
20458;SDS011;10388;52.314;7.938;2022-11-20T04:23:16;17.40;;;10.97;;
20458;SDS011;10388;52.314;7.938;2022-11-20T04:26:17;17.03;;;11.63;;
20458;SDS011;10388;52.314;7.938;2022-11-20T04:32:44;16.20;;;10.67;;
20458;SDS011;10388;52.314;7.938;2022-11-20T04:42:14;16.50;;;11.10;;
20458;SDS011;10388;52.314;7.938;2022-11-20T04:45:03;15.10;;;10.23;;
20458;SDS011;10388;52.314;7.938;2022-11-20T04:47:53;19.00;;;11.40;;
20458;SDS011;10388;52.314;7.938;2022-11-20T04:50:50;17.90;;;10.97;;
20458;SDS011;10388;52.314;7.938;2022-11-20T04:53:51;20.20;;;11.33;;
20458;SDS011;10388;52.314;7.938;2022-11-20T04:56:47;19.63;;;11.30;;
20458;SDS011;10388;52.314;7.938;2022-11-20T04:59:21;18.80;;;10.97;;
20458;SDS011;10388;52.314;7.938;2022-11-20T05:01:55;18.63;;;11.00;;
20458;SDS011;10388;52.314;7.938;2022-11-20T05:04:35;18.23;;;11.53;;
20458;SDS011;10388;52.314;7.938;2022-11-20T05:07:37;20.67;;;11.30;;
20458;SDS011;10388;52.314;7.938;2022-11-20T05:10:32;15.90;;;10.87;;
20458;SDS011;10388;52.314;7.938;2022-11-20T05:16:42;17.20;;;10.20;;
20458;SDS011;10388;52.314;7.938;2022-11-20T05:19:51;20.07;;;11.10;;
20458;SDS011;10388;52.314;7.938;2022-11-20T05:22:24;16.83;;;10.80;;
20458;SDS011;10388;52.314;7.938;2022-11-20T05:24:58;19.00;;;11.27;;
20458;SDS011;10388;52.314;7.938;2022-11-20T05:27:40;18.07;;;9.97;;
20458;SDS011;10388;52.314;7.938;2022-11-20T05:30:22;16.83;;;10.37;;
20458;SDS011;10388;52.314;7.938;2022-11-20T05:33:02;17.07;;;10.80;;
20458;SDS011;10388;52.314;7.938;2022-11-20T05:39:17;22.57;;;10.83;;
20458;SDS011;10388;52.314;7.938;2022-11-20T05:42:09;16.40;;;9.90;;
20458;SDS011;10388;52.314;7.938;2022-11-20T05:45:17;15.97;;;10.77;;
20458;SDS011;10388;52.314;7.938;2022-11-20T05:47:51;18.37;;;11.07;;
20458;SDS011;10388;52.314;7.938;2022-11-20T05:50:51;16.73;;;9.70;;
20458;SDS011;10388;52.314;7.938;2022-11-20T05:53:31;16.27;;;9.83;;
20458;SDS011;10388;52.314;7.938;2022-11-20T05:56:24;18.73;;;10.27;;
20458;SDS011;10388;52.314;7.938;2022-11-20T05:59:39;16.37;;;10.57;;
20458;SDS011;10388;52.314;7.938;2022-11-20T06:02:39;14.27;;;9.17;;
20458;SDS011;10388;52.314;7.938;2022-11-20T06:05:16;16.27;;;10.23;;
20458;SDS011;10388;52.314;7.938;2022-11-20T06:11:43;18.30;;;10.27;;
20458;SDS011;10388;52.314;7.938;2022-11-20T06:14:49;18.90;;;9.53;;
20458;SDS011;10388;52.314;7.938;2022-11-20T06:21:19;16.13;;;9.97;;
20458;SDS011;10388;52.314;7.938;2022-11-20T06:24:17;14.63;;;8.57;;
20458;SDS011;10388;52.314;7.938;2022-11-20T06:26:55;14.53;;;9.13;;
20458;SDS011;10388;52.314;7.938;2022-11-20T06:29:47;15.60;;;8.93;;
20458;SDS011;10388;52.314;7.938;2022-11-20T06:32:39;14.47;;;9.03;;
20458;SDS011;10388;52.314;7.938;2022-11-20T06:35:18;18.87;;;8.97;;
20458;SDS011;10388;52.314;7.938;2022-11-20T06:41:53;17.53;;;9.73;;
20458;SDS011;10388;52.314;7.938;2022-11-20T06:44:23;16.20;;;8.67;;
20458;SDS011;10388;52.314;7.938;2022-11-20T06:46:54;16.40;;;10.00;;
20458;SDS011;10388;52.314;7.938;2022-11-20T06:49:25;12.63;;;9.03;;
20458;SDS011;10388;52.314;7.938;2022-11-20T06:51:55;13.30;;;9.23;;
20458;SDS011;10388;52.314;7.938;2022-11-20T06:54:26;14.07;;;8.83;;
20458;SDS011;10388;52.314;7.938;2022-11-20T06:56:56;15.13;;;9.77;;
20458;SDS011;10388;52.314;7.938;2022-11-20T06:59:27;13.50;;;8.87;;
20458;SDS011;10388;52.314;7.938;2022-11-20T07:01:57;14.10;;;9.03;;
20458;SDS011;10388;52.314;7.938;2022-11-20T07:04:28;16.30;;;10.30;;
20458;SDS011;10388;52.314;7.938;2022-11-20T07:06:58;15.57;;;9.70;;
20458;SDS011;10388;52.314;7.938;2022-11-20T07:09:29;16.20;;;9.47;;
20458;SDS011;10388;52.314;7.938;2022-11-20T07:11:59;16.33;;;9.93;;
20458;SDS011;10388;52.314;7.938;2022-11-20T07:14:30;16.47;;;9.20;;
20458;SDS011;10388;52.314;7.938;2022-11-20T07:17:00;12.47;;;8.80;;
20458;SDS011;10388;52.314;7.938;2022-11-20T07:19:31;13.80;;;9.13;;
20458;SDS011;10388;52.314;7.938;2022-11-20T07:22:01;13.63;;;8.23;;
20458;SDS011;10388;52.314;7.938;2022-11-20T07:24:32;13.47;;;8.70;;
20458;SDS011;10388;52.314;7.938;2022-11-20T07:27:02;15.20;;;8.00;;
20458;SDS011;10388;52.314;7.938;2022-11-20T07:29:34;12.30;;;7.77;;
20458;SDS011;10388;52.314;7.938;2022-11-20T07:32:04;14.73;;;8.53;;
20458;SDS011;10388;52.314;7.938;2022-11-20T07:34:35;17.03;;;8.87;;
20458;SDS011;10388;52.314;7.938;2022-11-20T07:37:05;14.07;;;8.87;;
20458;SDS011;10388;52.314;7.938;2022-11-20T07:39:36;13.63;;;8.97;;
20458;SDS011;10388;52.314;7.938;2022-11-20T07:42:06;15.50;;;9.30;;
20458;SDS011;10388;52.314;7.938;2022-11-20T07:44:37;14.27;;;9.27;;
20458;SDS011;10388;52.314;7.938;2022-11-20T07:47:08;18.60;;;10.57;;
20458;SDS011;10388;52.314;7.938;2022-11-20T07:49:39;17.17;;;9.90;;
20458;SDS011;10388;52.314;7.938;2022-11-20T07:52:09;20.27;;;10.37;;
20458;SDS011;10388;52.314;7.938;2022-11-20T07:54:40;16.57;;;10.33;;
20458;SDS011;10388;52.314;7.938;2022-11-20T07:57:10;18.67;;;11.80;;
20458;SDS011;10388;52.314;7.938;2022-11-20T07:59:41;19.87;;;10.83;;
20458;SDS011;10388;52.314;7.938;2022-11-20T08:02:11;19.73;;;11.33;;
20458;SDS011;10388;52.314;7.938;2022-11-20T08:04:42;18.83;;;12.07;;
20458;SDS011;10388;52.314;7.938;2022-11-20T08:07:13;21.97;;;11.83;;
20458;SDS011;10388;52.314;7.938;2022-11-20T08:09:43;18.77;;;11.17;;
20458;SDS011;10388;52.314;7.938;2022-11-20T08:12:18;19.47;;;12.00;;
20458;SDS011;10388;52.314;7.938;2022-11-20T08:15:08;21.87;;;12.40;;
20458;SDS011;10388;52.314;7.938;2022-11-20T08:17:39;26.60;;;13.30;;
20458;SDS011;10388;52.314;7.938;2022-11-20T08:20:10;22.10;;;12.77;;
20458;SDS011;10388;52.314;7.938;2022-11-20T08:22:40;21.30;;;12.83;;
20458;SDS011;10388;52.314;7.938;2022-11-20T08:25:11;24.77;;;13.10;;
20458;SDS011;10388;52.314;7.938;2022-11-20T08:27:41;22.53;;;12.30;;
20458;SDS011;10388;52.314;7.938;2022-11-20T08:30:12;22.87;;;13.17;;
20458;SDS011;10388;52.314;7.938;2022-11-20T08:32:43;21.37;;;13.03;;
20458;SDS011;10388;52.314;7.938;2022-11-20T08:35:13;21.57;;;12.70;;
20458;SDS011;10388;52.314;7.938;2022-11-20T08:37:47;20.50;;;12.47;;
20458;SDS011;10388;52.314;7.938;2022-11-20T08:40:18;23.43;;;12.60;;
20458;SDS011;10388;52.314;7.938;2022-11-20T08:42:48;19.33;;;12.37;;
20458;SDS011;10388;52.314;7.938;2022-11-20T08:45:20;20.23;;;12.53;;
20458;SDS011;10388;52.314;7.938;2022-11-20T08:47:51;23.70;;;12.50;;
20458;SDS011;10388;52.314;7.938;2022-11-20T08:50:21;22.20;;;13.07;;
20458;SDS011;10388;52.314;7.938;2022-11-20T08:52:52;20.17;;;13.50;;
20458;SDS011;10388;52.314;7.938;2022-11-20T08:55:22;17.10;;;11.07;;
20458;SDS011;10388;52.314;7.938;2022-11-20T08:57:53;17.13;;;12.17;;
20458;SDS011;10388;52.314;7.938;2022-11-20T09:00:23;16.57;;;11.23;;
20458;SDS011;10388;52.314;7.938;2022-11-20T09:02:54;20.27;;;11.77;;
20458;SDS011;10388;52.314;7.938;2022-11-20T09:05:24;17.40;;;11.13;;
20458;SDS011;10388;52.314;7.938;2022-11-20T09:07:58;17.90;;;11.57;;
20458;SDS011;10388;52.314;7.938;2022-11-20T09:10:29;17.17;;;11.37;;
20458;SDS011;10388;52.314;7.938;2022-11-20T09:12:59;16.07;;;10.73;;
20458;SDS011;10388;52.314;7.938;2022-11-20T09:15:30;16.57;;;10.53;;
20458;SDS011;10388;52.314;7.938;2022-11-20T09:18:02;21.10;;;11.10;;
20458;SDS011;10388;52.314;7.938;2022-11-20T09:20:34;17.47;;;10.63;;
20458;SDS011;10388;52.314;7.938;2022-11-20T09:23:05;22.57;;;11.90;;
20458;SDS011;10388;52.314;7.938;2022-11-20T09:25:35;22.13;;;12.23;;
20458;SDS011;10388;52.314;7.938;2022-11-20T09:28:06;19.93;;;11.77;;
20458;SDS011;10388;52.314;7.938;2022-11-20T09:30:36;23.57;;;13.03;;
20458;SDS011;10388;52.314;7.938;2022-11-20T09:33:07;23.00;;;12.30;;
20458;SDS011;10388;52.314;7.938;2022-11-20T09:35:37;22.13;;;12.33;;
20458;SDS011;10388;52.314;7.938;2022-11-20T09:38:08;21.50;;;12.03;;
20458;SDS011;10388;52.314;7.938;2022-11-20T09:40:43;21.20;;;11.57;;
20458;SDS011;10388;52.314;7.938;2022-11-20T09:43:22;22.87;;;12.13;;
20458;SDS011;10388;52.314;7.938;2022-11-20T09:56:48;28.93;;;14.07;;
20458;SDS011;10388;52.314;7.938;2022-11-20T09:59:26;28.47;;;14.70;;
20458;SDS011;10388;52.314;7.938;2022-11-20T10:02:25;24.80;;;13.10;;
20458;SDS011;10388;52.314;7.938;2022-11-20T10:05:10;23.80;;;12.80;;
20458;SDS011;10388;52.314;7.938;2022-11-20T10:13:39;24.53;;;13.37;;
20458;SDS011;10388;52.314;7.938;2022-11-20T10:19:07;26.80;;;13.03;;
20458;SDS011;10388;52.314;7.938;2022-11-20T10:21:56;27.33;;;12.50;;
20458;SDS011;10388;52.314;7.938;2022-11-20T10:30:26;26.20;;;12.87;;
20458;SDS011;10388;52.314;7.938;2022-11-20T10:32:59;29.87;;;13.63;;
20458;SDS011;10388;52.314;7.938;2022-11-20T10:38:20;34.40;;;14.93;;
20458;SDS011;10388;52.314;7.938;2022-11-20T10:40:56;36.93;;;15.63;;
20458;SDS011;10388;52.314;7.938;2022-11-20T10:43:49;30.97;;;14.50;;
20458;SDS011;10388;52.314;7.938;2022-11-20T10:46:38;40.77;;;16.27;;
20458;SDS011;10388;52.314;7.938;2022-11-20T10:49:14;32.57;;;14.40;;
20458;SDS011;10388;52.314;7.938;2022-11-20T10:51:51;36.40;;;16.53;;
20458;SDS011;10388;52.314;7.938;2022-11-20T10:55:06;35.93;;;16.40;;
20458;SDS011;10388;52.314;7.938;2022-11-20T10:57:52;33.83;;;15.03;;
20458;SDS011;10388;52.314;7.938;2022-11-20T11:00:38;31.60;;;16.03;;
20458;SDS011;10388;52.314;7.938;2022-11-20T11:03:28;32.03;;;14.93;;
20458;SDS011;10388;52.314;7.938;2022-11-20T11:06:07;29.93;;;13.67;;
20458;SDS011;10388;52.314;7.938;2022-11-20T11:08:43;25.67;;;12.97;;
20458;SDS011;10388;52.314;7.938;2022-11-20T11:14:03;30.60;;;14.30;;
20458;SDS011;10388;52.314;7.938;2022-11-20T11:16:35;24.10;;;12.40;;
20458;SDS011;10388;52.314;7.938;2022-11-20T11:19:18;25.27;;;12.07;;
20458;SDS011;10388;52.314;7.938;2022-11-20T11:21:53;23.83;;;12.37;;
20458;SDS011;10388;52.314;7.938;2022-11-20T11:24:27;28.67;;;14.70;;
20458;SDS011;10388;52.314;7.938;2022-11-20T11:27:04;27.07;;;12.37;;
20458;SDS011;10388;52.314;7.938;2022-11-20T11:29:42;29.80;;;13.27;;
20458;SDS011;10388;52.314;7.938;2022-11-20T11:32:19;25.90;;;11.97;;
20458;SDS011;10388;52.314;7.938;2022-11-20T11:34:58;27.07;;;12.00;;
20458;SDS011;10388;52.314;7.938;2022-11-20T11:37:34;26.43;;;11.90;;
20458;SDS011;10388;52.314;7.938;2022-11-20T11:40:08;22.03;;;10.97;;
20458;SDS011;10388;52.314;7.938;2022-11-20T11:42:46;26.17;;;12.10;;
20458;SDS011;10388;52.314;7.938;2022-11-20T11:45:22;22.70;;;10.67;;
20458;SDS011;10388;52.314;7.938;2022-11-20T11:47:55;21.83;;;11.27;;
20458;SDS011;10388;52.314;7.938;2022-11-20T11:50:28;19.40;;;10.77;;
20458;SDS011;10388;52.314;7.938;2022-11-20T11:55:49;21.10;;;11.87;;
20458;SDS011;10388;52.314;7.938;2022-11-20T11:58:51;18.27;;;11.03;;
20458;SDS011;10388;52.314;7.938;2022-11-20T12:06:48;19.63;;;10.33;;
20458;SDS011;10388;52.314;7.938;2022-11-20T12:09:24;20.53;;;10.77;;
20458;SDS011;10388;52.314;7.938;2022-11-20T12:12:14;19.50;;;10.47;;
20458;SDS011;10388;52.314;7.938;2022-11-20T12:14:49;20.00;;;11.10;;
20458;SDS011;10388;52.314;7.938;2022-11-20T12:17:24;25.83;;;13.13;;
20458;SDS011;10388;52.314;7.938;2022-11-20T12:19:55;21.23;;;12.07;;
20458;SDS011;10388;52.314;7.938;2022-11-20T12:22:36;21.60;;;11.57;;
20458;SDS011;10388;52.314;7.938;2022-11-20T12:27:50;21.77;;;11.90;;
20458;SDS011;10388;52.314;7.938;2022-11-20T12:30:38;21.03;;;11.10;;
20458;SDS011;10388;52.314;7.938;2022-11-20T12:36:19;18.57;;;9.90;;
20458;SDS011;10388;52.314;7.938;2022-11-20T12:59:05;21.43;;;13.40;;
20458;SDS011;10388;52.314;7.938;2022-11-20T13:02:19;20.17;;;12.53;;
20458;SDS011;10388;52.314;7.938;2022-11-20T13:05:03;24.27;;;14.30;;
20458;SDS011;10388;52.314;7.938;2022-11-20T13:07:36;22.67;;;14.17;;
20458;SDS011;10388;52.314;7.938;2022-11-20T13:12:58;25.33;;;14.83;;
20458;SDS011;10388;52.314;7.938;2022-11-20T13:15:47;25.00;;;14.37;;
20458;SDS011;10388;52.314;7.938;2022-11-20T13:18:25;26.53;;;14.73;;
20458;SDS011;10388;52.314;7.938;2022-11-20T13:20:57;25.67;;;13.67;;
20458;SDS011;10388;52.314;7.938;2022-11-20T13:23:27;24.37;;;13.77;;
20458;SDS011;10388;52.314;7.938;2022-11-20T13:29:08;24.43;;;14.60;;
20458;SDS011;10388;52.314;7.938;2022-11-20T13:31:47;25.77;;;14.30;;
20458;SDS011;10388;52.314;7.938;2022-11-20T13:34:25;26.17;;;16.50;;
20458;SDS011;10388;52.314;7.938;2022-11-20T13:36:58;28.90;;;15.40;;
20458;SDS011;10388;52.314;7.938;2022-11-20T13:39:34;25.80;;;15.20;;
20458;SDS011;10388;52.314;7.938;2022-11-20T13:44:44;24.33;;;14.70;;
20458;SDS011;10388;52.314;7.938;2022-11-20T13:47:21;26.23;;;15.33;;
20458;SDS011;10388;52.314;7.938;2022-11-20T13:49:55;31.17;;;17.80;;
20458;SDS011;10388;52.314;7.938;2022-11-20T13:55:23;26.80;;;17.03;;
20458;SDS011;10388;52.314;7.938;2022-11-20T14:00:43;32.63;;;17.40;;
20458;SDS011;10388;52.314;7.938;2022-11-20T14:03:34;31.33;;;17.83;;
20458;SDS011;10388;52.314;7.938;2022-11-20T14:06:11;28.37;;;17.10;;
20458;SDS011;10388;52.314;7.938;2022-11-20T14:08:54;27.37;;;15.67;;
20458;SDS011;10388;52.314;7.938;2022-11-20T14:11:26;25.40;;;17.30;;
20458;SDS011;10388;52.314;7.938;2022-11-20T14:14:10;29.30;;;15.93;;
20458;SDS011;10388;52.314;7.938;2022-11-20T14:16:45;27.13;;;15.93;;
20458;SDS011;10388;52.314;7.938;2022-11-20T14:21:54;28.73;;;15.37;;
20458;SDS011;10388;52.314;7.938;2022-11-20T14:24:37;25.33;;;16.40;;
20458;SDS011;10388;52.314;7.938;2022-11-20T14:27:15;27.87;;;15.00;;
20458;SDS011;10388;52.314;7.938;2022-11-20T14:29:49;26.70;;;15.00;;
20458;SDS011;10388;52.314;7.938;2022-11-20T14:32:21;26.03;;;14.27;;
20458;SDS011;10388;52.314;7.938;2022-11-20T14:34:59;26.03;;;15.63;;
20458;SDS011;10388;52.314;7.938;2022-11-20T14:37:37;23.67;;;15.57;;
20458;SDS011;10388;52.314;7.938;2022-11-20T14:40:22;24.57;;;15.30;;
20458;SDS011;10388;52.314;7.938;2022-11-20T14:42:58;23.57;;;13.43;;
20458;SDS011;10388;52.314;7.938;2022-11-20T14:45:29;22.70;;;14.20;;
20458;SDS011;10388;52.314;7.938;2022-11-20T14:48:00;26.83;;;16.73;;
20458;SDS011;10388;52.314;7.938;2022-11-20T14:50:30;26.90;;;16.73;;
20458;SDS011;10388;52.314;7.938;2022-11-20T14:53:02;27.67;;;16.87;;
20458;SDS011;10388;52.314;7.938;2022-11-20T14:55:37;24.70;;;16.00;;
20458;SDS011;10388;52.314;7.938;2022-11-20T14:58:21;25.73;;;15.57;;
20458;SDS011;10388;52.314;7.938;2022-11-20T15:00:55;21.80;;;13.80;;
20458;SDS011;10388;52.314;7.938;2022-11-20T15:03:34;22.73;;;14.47;;
20458;SDS011;10388;52.314;7.938;2022-11-20T15:06:09;21.93;;;13.90;;
20458;SDS011;10388;52.314;7.938;2022-11-20T15:08:50;19.07;;;12.70;;
20458;SDS011;10388;52.314;7.938;2022-11-20T15:11:24;22.53;;;13.40;;
20458;SDS011;10388;52.314;7.938;2022-11-20T15:14:04;21.57;;;13.83;;
20458;SDS011;10388;52.314;7.938;2022-11-20T15:16:36;21.47;;;13.43;;
20458;SDS011;10388;52.314;7.938;2022-11-20T15:19:09;20.40;;;13.73;;
20458;SDS011;10388;52.314;7.938;2022-11-20T15:21:47;20.07;;;13.80;;
20458;SDS011;10388;52.314;7.938;2022-11-20T15:24:18;20.13;;;12.77;;
20458;SDS011;10388;52.314;7.938;2022-11-20T15:26:49;20.50;;;14.10;;
20458;SDS011;10388;52.314;7.938;2022-11-20T15:29:20;31.97;;;18.43;;
20458;SDS011;10388;52.314;7.938;2022-11-20T15:31:53;24.57;;;15.73;;
20458;SDS011;10388;52.314;7.938;2022-11-20T15:34:26;23.37;;;15.13;;
20458;SDS011;10388;52.314;7.938;2022-11-20T15:36:57;22.70;;;15.73;;
20458;SDS011;10388;52.314;7.938;2022-11-20T15:39:27;22.73;;;15.00;;
20458;SDS011;10388;52.314;7.938;2022-11-20T15:41:58;21.20;;;13.70;;
20458;SDS011;10388;52.314;7.938;2022-11-20T15:44:28;23.23;;;13.67;;
20458;SDS011;10388;52.314;7.938;2022-11-20T15:46:59;21.90;;;14.50;;
20458;SDS011;10388;52.314;7.938;2022-11-20T15:49:30;21.70;;;14.93;;
20458;SDS011;10388;52.314;7.938;2022-11-20T15:52:00;22.07;;;13.90;;
20458;SDS011;10388;52.314;7.938;2022-11-20T15:54:31;24.90;;;16.67;;
20458;SDS011;10388;52.314;7.938;2022-11-20T15:57:02;20.50;;;14.73;;
20458;SDS011;10388;52.314;7.938;2022-11-20T15:59:32;23.43;;;15.63;;
20458;SDS011;10388;52.314;7.938;2022-11-20T16:02:07;21.97;;;15.57;;
20458;SDS011;10388;52.314;7.938;2022-11-20T16:04:39;23.83;;;15.37;;
20458;SDS011;10388;52.314;7.938;2022-11-20T16:07:10;23.07;;;14.47;;
20458;SDS011;10388;52.314;7.938;2022-11-20T16:09:41;21.57;;;15.13;;
20458;SDS011;10388;52.314;7.938;2022-11-20T16:12:12;19.77;;;13.70;;
20458;SDS011;10388;52.314;7.938;2022-11-20T16:15:03;21.40;;;13.87;;
20458;SDS011;10388;52.314;7.938;2022-11-20T16:17:52;21.77;;;14.57;;
20458;SDS011;10388;52.314;7.938;2022-11-20T16:20:23;26.73;;;16.30;;
20458;SDS011;10388;52.314;7.938;2022-11-20T16:22:54;24.03;;;15.17;;
20458;SDS011;10388;52.314;7.938;2022-11-20T16:25:26;20.67;;;14.07;;
20458;SDS011;10388;52.314;7.938;2022-11-20T16:27:57;19.27;;;13.70;;
20458;SDS011;10388;52.314;7.938;2022-11-20T16:30:28;19.37;;;13.30;;
20458;SDS011;10388;52.314;7.938;2022-11-20T16:32:59;19.13;;;12.27;;
20458;SDS011;10388;52.314;7.938;2022-11-20T16:35:30;18.57;;;13.03;;
20458;SDS011;10388;52.314;7.938;2022-11-20T16:38:01;16.70;;;11.77;;
20458;SDS011;10388;52.314;7.938;2022-11-20T16:40:32;18.83;;;12.87;;
20458;SDS011;10388;52.314;7.938;2022-11-20T16:43:09;18.23;;;12.13;;
20458;SDS011;10388;52.314;7.938;2022-11-20T16:45:41;18.40;;;13.07;;
20458;SDS011;10388;52.314;7.938;2022-11-20T16:48:14;18.47;;;11.83;;
20458;SDS011;10388;52.314;7.938;2022-11-20T16:50:49;19.13;;;12.33;;
20458;SDS011;10388;52.314;7.938;2022-11-20T16:53:21;16.27;;;12.20;;
20458;SDS011;10388;52.314;7.938;2022-11-20T16:55:52;19.43;;;12.13;;
20458;SDS011;10388;52.314;7.938;2022-11-20T16:58:23;17.13;;;11.97;;
20458;SDS011;10388;52.314;7.938;2022-11-20T17:00:53;15.87;;;11.40;;
20458;SDS011;10388;52.314;7.938;2022-11-20T17:03:24;17.57;;;11.67;;
20458;SDS011;10388;52.314;7.938;2022-11-20T17:05:54;19.23;;;12.30;;
20458;SDS011;10388;52.314;7.938;2022-11-20T17:08:27;16.93;;;11.57;;
20458;SDS011;10388;52.314;7.938;2022-11-20T17:11:03;17.20;;;11.57;;
20458;SDS011;10388;52.314;7.938;2022-11-20T17:13:35;16.20;;;11.70;;
20458;SDS011;10388;52.314;7.938;2022-11-20T17:16:10;18.47;;;11.60;;
20458;SDS011;10388;52.314;7.938;2022-11-20T17:18:42;17.97;;;11.47;;
20458;SDS011;10388;52.314;7.938;2022-11-20T17:21:13;15.10;;;11.10;;
20458;SDS011;10388;52.314;7.938;2022-11-20T17:23:45;18.40;;;12.40;;
20458;SDS011;10388;52.314;7.938;2022-11-20T17:26:19;19.23;;;14.00;;
20458;SDS011;10388;52.314;7.938;2022-11-20T17:28:52;18.20;;;12.00;;
20458;SDS011;10388;52.314;7.938;2022-11-20T17:31:25;20.03;;;12.60;;
20458;SDS011;10388;52.314;7.938;2022-11-20T17:33:57;17.30;;;13.03;;
20458;SDS011;10388;52.314;7.938;2022-11-20T17:36:29;16.50;;;11.77;;
20458;SDS011;10388;52.314;7.938;2022-11-20T17:39:00;16.67;;;11.30;;
20458;SDS011;10388;52.314;7.938;2022-11-20T17:41:31;17.50;;;11.70;;
20458;SDS011;10388;52.314;7.938;2022-11-20T17:44:03;17.67;;;11.37;;
20458;SDS011;10388;52.314;7.938;2022-11-20T17:46:33;17.40;;;11.73;;
20458;SDS011;10388;52.314;7.938;2022-11-20T17:49:04;15.40;;;10.80;;
20458;SDS011;10388;52.314;7.938;2022-11-20T17:51:35;18.47;;;11.50;;
20458;SDS011;10388;52.314;7.938;2022-11-20T17:54:06;17.60;;;11.10;;
20458;SDS011;10388;52.314;7.938;2022-11-20T17:56:36;17.43;;;11.90;;
20458;SDS011;10388;52.314;7.938;2022-11-20T17:59:25;15.67;;;10.90;;
20458;SDS011;10388;52.314;7.938;2022-11-20T18:01:56;16.37;;;11.53;;
20458;SDS011;10388;52.314;7.938;2022-11-20T18:04:26;16.97;;;12.17;;
20458;SDS011;10388;52.314;7.938;2022-11-20T18:06:57;17.17;;;11.83;;
20458;SDS011;10388;52.314;7.938;2022-11-20T18:09:28;15.40;;;11.27;;
20458;SDS011;10388;52.314;7.938;2022-11-20T18:11:58;17.20;;;12.03;;
20458;SDS011;10388;52.314;7.938;2022-11-20T18:14:29;15.90;;;10.73;;
20458;SDS011;10388;52.314;7.938;2022-11-20T18:17:05;16.30;;;11.40;;
20458;SDS011;10388;52.314;7.938;2022-11-20T18:19:39;17.27;;;12.23;;
20458;SDS011;10388;52.314;7.938;2022-11-20T18:22:13;18.30;;;11.73;;
20458;SDS011;10388;52.314;7.938;2022-11-20T18:24:45;19.50;;;12.27;;
20458;SDS011;10388;52.314;7.938;2022-11-20T18:27:17;17.53;;;12.53;;
20458;SDS011;10388;52.314;7.938;2022-11-20T18:29:48;17.33;;;11.93;;
20458;SDS011;10388;52.314;7.938;2022-11-20T18:32:22;18.13;;;11.73;;
20458;SDS011;10388;52.314;7.938;2022-11-20T18:34:53;18.33;;;12.47;;